Time;durP1;ratioP1;P1;durP2;ratioP2;P2;SDS_P1;SDS_P2;PMS_P1;PMS_P2;Temp;Humidity;BMP_temperature;BMP_pressure;BME280_temperature;BME280_humidity;BME280_pressure;Samples;Min_cycle;Max_cycle;Signal;HPM_P1;HPM_P2
2024/01/02 00:16:00;;;;;;;5.80;0.35;;;8.20;99.90;;;;;;4980480;28;85727;-84
2024/01/02 00:19:27;;;;;;;1.95;0.55;;;8.20;99.90;;;;;;4959158;28;85357;-84
2024/01/02 00:22:41;;;;;;;1.30;0.38;;;8.20;99.90;;;;;;4897131;28;85005;-86
2024/01/02 00:25:56;;;;;;;6.65;0.70;;;8.20;99.90;;;;;;4923288;28;84938;-84
2024/01/02 00:38:52;;;;;;;2.20;0.35;;;8.10;99.90;;;;;;4935152;28;85768;-85
2024/01/02 00:44:06;;;;;;;2.17;0.30;;;8.10;99.90;;;;;;4987598;28;85179;-85
2024/01/02 00:46:56;;;;;;;0.88;0.20;;;8.10;99.90;;;;;;4968914;28;85535;-87
2024/01/02 00:52:21;;;;;;;;;;;8.10;99.90;;;;;;4956220;28;85120;-86
2024/01/02 00:55:46;;;;;;;0.75;0.20;;;8.10;99.90;;;;;;4942764;28;85446;-84
2024/01/02 01:01:32;;;;;;;1.40;0.40;;;8.00;99.90;;;;;;4902741;28;85968;-86
2024/01/02 01:04:03;;;;;;;1.08;0.20;;;8.00;99.90;;;;;;4887892;28;85694;-86
2024/01/02 01:07:14;;;;;;;0.88;0.20;;;8.00;99.90;;;;;;4878395;28;84960;-85
2024/01/02 01:15:02;;;;;;;1.20;0.22;;;8.00;99.90;;;;;;4896742;28;85246;-85
2024/01/02 01:17:59;;;;;;;2.05;0.30;;;8.00;99.90;;;;;;4911584;28;85047;-87
2024/01/02 01:20:32;;;;;;;1.38;0.20;;;8.10;99.90;;;;;;4940712;28;84989;-85
2024/01/02 01:23:23;;;;;;;2.80;0.20;;;8.00;99.90;;;;;;4896238;28;85702;-86
2024/01/02 01:25:56;;;;;;;0.20;0.10;;;8.00;99.90;;;;;;4906296;28;85651;-86
2024/01/02 01:34:15;;;;;;;2.20;0.20;;;8.10;99.90;;;;;;4953853;28;85739;-86
2024/01/02 01:37:05;;;;;;;0.10;0.10;;;8.10;99.90;;;;;;4905041;28;85829;-86
2024/01/02 01:40:27;;;;;;;1.20;0.10;;;8.10;99.90;;;;;;4955653;28;85645;-86
2024/01/02 01:43:35;;;;;;;0.20;0.10;;;8.20;99.90;;;;;;4919604;28;85020;-85
2024/01/02 01:46:38;;;;;;;0.63;0.10;;;8.20;99.90;;;;;;4917548;28;85942;-85
2024/01/02 01:49:46;;;;;;;0.73;0.20;;;8.20;99.90;;;;;;4943945;28;86479;-86
2024/01/02 02:26:22;;;;;;;0.10;0.10;;;8.60;99.90;;;;;;4995600;28;85954;-85
2024/01/02 03:02:40;;;;;;;0.38;0.10;;;8.90;99.90;;;;;;4925855;28;85494;-85
2024/01/02 03:05:52;;;;;;;0.20;0.10;;;8.90;99.90;;;;;;4927092;28;85314;-86
2024/01/02 03:21:12;;;;;;;0.57;0.10;;;9.00;99.90;;;;;;4933781;28;85901;-84
2024/01/02 03:24:21;;;;;;;0.10;0.00;;;9.00;99.90;;;;;;4938876;28;85476;-84
2024/01/02 03:32:13;;;;;;;0.10;0.10;;;9.20;99.90;;;;;;4948733;28;85226;-85
2024/01/02 03:35:17;;;;;;;0.55;0.10;;;9.20;99.90;;;;;;4933883;28;89831;-86
2024/01/02 03:43:44;;;;;;;0.00;0.00;;;9.20;99.90;;;;;;4947312;28;86338;-85
2024/01/02 03:46:12;;;;;;;0.10;0.10;;;9.20;99.90;;;;;;4931005;28;85666;-86
2024/01/02 03:48:39;;;;;;;0.00;0.00;;;9.20;99.90;;;;;;4905235;28;85196;-86
2024/01/02 03:51:08;;;;;;;0.00;0.00;;;9.30;99.90;;;;;;5357281;23;86831;-87
2024/01/02 03:53:55;;;;;;;0.28;0.20;;;9.30;99.90;;;;;;4989489;23;85744;-85
2024/01/02 03:56:53;;;;;;;0.00;0.00;;;9.40;99.90;;;;;;4989385;28;89982;-84
2024/01/02 04:01:52;;;;;;;0.00;0.00;;;9.50;99.90;;;;;;5025778;28;86230;-85
2024/01/02 04:07:31;;;;;;;0.00;0.00;;;9.50;99.90;;;;;;4981655;27;85734;-86
2024/01/02 04:10:17;;;;;;;0.00;0.00;;;9.60;99.90;;;;;;5071684;23;86014;-86
2024/01/02 04:12:44;;;;;;;0.00;0.00;;;9.60;99.90;;;;;;4978634;28;85111;-86
2024/01/02 04:15:11;;;;;;;1.10;0.10;;;9.60;99.90;;;;;;4980572;28;86840;-86
2024/01/02 04:17:37;;;;;;;0.30;0.10;;;9.70;99.90;;;;;;4987563;28;85385;-87
2024/01/02 04:20:10;;;;;;;0.00;0.00;;;9.70;99.90;;;;;;4992116;28;85646;-87
2024/01/02 04:22:39;;;;;;;;;;;9.80;99.90;;;;;;4999612;28;85071;-86
2024/01/02 04:25:27;;;;;;;0.15;0.00;;;9.80;99.90;;;;;;4982947;28;85584;-86
2024/01/02 04:27:55;;;;;;;0.00;0.00;;;9.80;99.90;;;;;;5005701;28;86512;-87
2024/01/02 04:30:21;;;;;;;0.00;0.00;;;9.80;99.90;;;;;;5001644;28;85011;-87
2024/01/02 04:32:49;;;;;;;0.10;0.00;;;9.80;99.90;;;;;;4981807;28;85141;-87
2024/01/02 04:35:18;;;;;;;0.03;0.00;;;9.80;99.90;;;;;;4980759;28;85796;-87
2024/01/02 04:37:45;;;;;;;0.00;0.00;;;9.90;99.90;;;;;;5003827;28;85702;-87
2024/01/02 04:40:13;;;;;;;0.10;0.10;;;9.90;99.90;;;;;;4964888;28;85009;-88
2024/01/02 04:42:41;;;;;;;0.30;0.00;;;9.90;99.90;;;;;;4977490;28;85727;-89
2024/01/02 04:45:11;;;;;;;0.00;0.00;;;10.00;99.90;;;;;;4980406;28;85684;-89
2024/01/02 04:47:38;;;;;;;0.10;0.08;;;10.00;99.90;;;;;;4996257;28;85819;-88
2024/01/02 04:50:04;;;;;;;0.00;0.00;;;10.10;99.90;;;;;;4979684;28;84844;-89
2024/01/02 04:52:30;;;;;;;0.00;0.00;;;10.10;99.90;;;;;;4981928;28;85241;-87
2024/01/02 04:54:57;;;;;;;0.00;0.00;;;10.10;99.90;;;;;;4979474;28;87027;-88
2024/01/02 04:57:25;;;;;;;1.85;0.08;;;10.20;99.90;;;;;;4980117;28;85774;-89
2024/01/02 04:59:50;;;;;;;0.00;0.00;;;10.20;99.90;;;;;;4979625;28;84987;-89
2024/01/02 05:02:22;;;;;;;0.00;0.00;;;10.20;99.90;;;;;;4981253;28;85155;-89
2024/01/02 05:04:49;;;;;;;1.55;0.10;;;10.30;99.90;;;;;;4982468;28;85733;-88
2024/01/02 05:07:15;;;;;;;1.58;0.10;;;10.30;99.90;;;;;;4997382;28;85392;-90
2024/01/02 05:09:40;;;;;;;0.05;0.05;;;10.40;99.90;;;;;;4988150;28;85444;-89
2024/01/02 05:12:06;;;;;;;0.05;0.00;;;10.40;99.90;;;;;;4982438;28;86885;-89
2024/01/02 05:14:32;;;;;;;0.17;0.08;;;10.40;99.90;;;;;;4982127;28;85774;-89
2024/01/02 05:17:09;;;;;;;0.00;0.00;;;10.50;99.90;;;;;;4983866;28;85516;-90
2024/01/02 05:19:35;;;;;;;0.13;0.10;;;10.50;99.90;;;;;;4981803;28;85936;-89
2024/01/02 05:22:01;;;;;;;0.10;0.00;;;10.60;99.90;;;;;;4982629;28;85049;-89
2024/01/02 05:24:27;;;;;;;0.10;0.10;;;10.60;99.90;;;;;;4981196;28;85631;-88
2024/01/02 05:26:53;;;;;;;0.10;0.10;;;10.60;99.90;;;;;;4981694;28;85906;-90
2024/01/02 05:29:20;;;;;;;0.10;0.10;;;10.60;99.90;;;;;;4966173;28;85106;-89
2024/01/02 05:31:47;;;;;;;0.65;0.10;;;10.70;99.90;;;;;;4984060;28;85706;-89
2024/01/02 05:34:14;;;;;;;0.08;0.08;;;10.70;99.90;;;;;;4982224;28;85411;-89
2024/01/02 05:36:40;;;;;;;0.52;0.08;;;10.70;99.90;;;;;;4983555;28;85636;-90
2024/01/02 05:39:07;;;;;;;0.00;0.00;;;10.70;99.90;;;;;;4984026;28;85120;-90
2024/01/02 05:41:33;;;;;;;0.10;0.10;;;10.80;99.90;;;;;;4984095;28;85044;-90
2024/01/02 05:43:59;;;;;;;0.00;0.00;;;10.80;99.90;;;;;;5003114;28;86620;-89
2024/01/02 05:46:26;;;;;;;0.08;0.08;;;10.80;99.90;;;;;;4984325;28;85437;-90
2024/01/02 05:48:53;;;;;;;0.32;0.10;;;10.80;99.90;;;;;;4999607;28;85704;-89
2024/01/02 05:51:19;;;;;;;0.03;0.03;;;10.80;99.90;;;;;;4983164;28;85030;-90
2024/01/02 05:53:45;;;;;;;0.08;0.00;;;10.90;99.90;;;;;;4982084;28;86953;-90
2024/01/02 05:56:12;;;;;;;1.05;0.10;;;10.90;99.90;;;;;;4985732;28;86367;-89
2024/01/02 05:58:39;;;;;;;0.73;0.10;;;10.90;99.90;;;;;;4977371;28;84990;-90
2024/01/02 06:01:08;;;;;;;0.40;0.10;;;11.00;99.90;;;;;;4977133;28;85053;-90
2024/01/02 06:03:33;;;;;;;0.03;0.03;;;11.00;99.90;;;;;;4992727;28;85730;-90
2024/01/02 06:05:59;;;;;;;0.00;0.00;;;11.00;99.90;;;;;;4960757;28;85400;-91
2024/01/02 06:08:26;;;;;;;0.10;0.10;;;11.00;99.90;;;;;;4980545;28;84915;-89
2024/01/02 06:10:52;;;;;;;0.40;0.10;;;11.00;99.90;;;;;;4979419;28;85450;-90
2024/01/02 06:13:18;;;;;;;0.10;0.08;;;11.00;99.90;;;;;;4979142;28;85857;-91
2024/01/02 06:15:49;;;;;;;0.10;0.10;;;11.00;99.90;;;;;;4978821;28;85150;-89
2024/01/02 06:18:15;;;;;;;0.10;0.10;;;11.00;99.90;;;;;;4974311;28;84947;-90
2024/01/02 06:20:45;;;;;;;0.50;0.10;;;11.10;99.90;;;;;;4993082;28;85764;-90
2024/01/02 06:23:15;;;;;;;0.13;0.10;;;11.10;99.90;;;;;;4975671;28;85681;-90
2024/01/02 06:25:42;;;;;;;3.35;0.10;;;11.00;99.90;;;;;;4974226;28;87690;-90
2024/01/02 06:28:07;;;;;;;0.80;0.10;;;11.10;99.90;;;;;;4977330;28;85413;-91
2024/01/02 06:30:36;;;;;;;0.00;0.00;;;11.10;99.90;;;;;;4980089;28;85265;-90
2024/01/02 06:33:01;;;;;;;0.20;0.00;;;11.10;99.90;;;;;;4979638;28;85749;-89
2024/01/02 06:35:28;;;;;;;2.45;0.95;;;11.10;99.90;;;;;;4996809;28;86259;-90
2024/01/02 06:37:53;;;;;;;0.52;0.10;;;11.20;99.90;;;;;;4980421;28;85520;-91
2024/01/02 06:40:20;;;;;;;0.10;0.10;;;11.20;99.90;;;;;;4981602;28;85126;-89
2024/01/02 06:42:47;;;;;;;0.13;0.10;;;11.20;99.90;;;;;;4997322;28;85816;-90
2024/01/02 06:45:14;;;;;;;0.20;0.10;;;11.20;99.90;;;;;;4979577;28;85629;-91
2024/01/02 06:47:40;;;;;;;0.05;0.05;;;11.20;99.90;;;;;;4995252;28;84866;-90
2024/01/02 06:50:07;;;;;;;0.10;0.10;;;11.20;99.90;;;;;;4978191;28;85784;-91
2024/01/02 06:52:34;;;;;;;0.20;0.10;;;11.20;99.90;;;;;;4977230;28;89522;-90
2024/01/02 06:55:00;;;;;;;4.03;0.10;;;11.20;99.90;;;;;;4993626;28;85632;-91
2024/01/02 06:57:26;;;;;;;0.20;0.20;;;11.30;99.90;;;;;;4967643;28;85545;-90
2024/01/02 06:59:52;;;;;;;5.07;0.10;;;11.30;99.90;;;;;;4962594;28;86007;-90
2024/01/02 07:02:20;;;;;;;0.10;0.10;;;11.30;99.90;;;;;;4980403;28;86499;-90
2024/01/02 07:04:46;;;;;;;0.57;0.20;;;11.30;99.90;;;;;;4964788;28;86049;-91
2024/01/02 07:07:13;;;;;;;0.75;0.13;;;11.30;99.90;;;;;;4998516;28;84892;-90
2024/01/02 07:09:39;;;;;;;0.03;0.03;;;11.30;99.90;;;;;;4997374;28;85194;-91
2024/01/02 07:12:05;;;;;;;0.13;0.10;;;11.40;99.90;;;;;;4983224;28;85690;-91
2024/01/02 07:14:33;;;;;;;0.98;0.20;;;11.40;99.90;;;;;;4997573;28;91106;-90
2024/01/02 07:16:59;;;;;;;0.85;0.10;;;11.40;99.90;;;;;;4980960;28;85772;-90
2024/01/02 07:19:26;;;;;;;0.10;0.10;;;11.40;99.90;;;;;;4980521;28;85433;-91
2024/01/02 07:21:53;;;;;;;1.33;0.10;;;11.50;99.90;;;;;;4977803;28;85701;-90
2024/01/02 07:24:20;;;;;;;0.10;0.10;;;11.50;99.90;;;;;;4962509;28;87251;-91
2024/01/02 07:26:48;;;;;;;3.78;0.22;;;11.50;99.90;;;;;;4996989;28;85849;-90
2024/01/02 07:29:14;;;;;;;0.73;0.20;;;11.50;99.90;;;;;;4977867;28;85641;-90
2024/01/02 07:31:41;;;;;;;1.52;0.10;;;11.60;99.90;;;;;;4981120;28;87340;-90
2024/01/02 07:34:07;;;;;;;1.98;1.00;;;11.60;99.90;;;;;;4979808;28;85721;-93
2024/01/02 07:36:33;;;;;;;1.25;0.20;;;11.60;99.90;;;;;;4963456;28;85385;-91
2024/01/02 07:38:59;;;;;;;0.10;0.10;;;11.60;99.90;;;;;;4979027;28;85919;-91
2024/01/02 07:41:26;;;;;;;0.17;0.10;;;11.60;99.90;;;;;;4979285;28;87496;-90
2024/01/02 07:43:52;;;;;;;0.80;0.20;;;11.60;99.90;;;;;;4997126;28;85324;-90
2024/01/02 07:46:18;;;;;;;0.63;0.10;;;11.60;99.90;;;;;;4978888;28;86117;-90
2024/01/02 07:48:45;;;;;;;0.35;0.10;;;11.60;99.90;;;;;;4980088;28;85011;-90
2024/01/02 07:51:11;;;;;;;0.80;0.10;;;11.60;99.90;;;;;;4963504;28;85885;-91
2024/01/02 07:53:37;;;;;;;0.30;0.20;;;11.60;99.90;;;;;;4997853;28;85568;-90
2024/01/02 07:56:05;;;;;;;0.10;0.10;;;11.60;99.90;;;;;;4963519;28;84890;-91
2024/01/02 07:58:31;;;;;;;0.13;0.10;;;11.70;99.90;;;;;;4977707;28;85646;-91
2024/01/02 08:00:57;;;;;;;0.13;0.10;;;11.60;99.90;;;;;;4979498;28;85524;-91
2024/01/02 08:03:24;;;;;;;0.30;0.17;;;11.60;99.90;;;;;;4996432;28;85622;-90
2024/01/02 08:05:49;;;;;;;0.10;0.10;;;11.60;99.90;;;;;;4976906;28;85601;-90
2024/01/02 08:08:16;;;;;;;0.28;0.10;;;11.60;99.90;;;;;;4978146;28;84994;-91
2024/01/02 09:31:06;;;;;;;0.38;0.20;;;11.50;99.90;;;;;;5013395;28;87291;-79
2024/01/02 09:33:31;;;;;;;0.40;0.10;;;11.40;99.90;;;;;;5015326;28;86510;-78
2024/01/02 09:35:58;;;;;;;0.40;0.20;;;11.40;99.90;;;;;;5003150;28;86545;-77
2024/01/02 09:38:24;;;;;;;0.70;0.22;;;11.40;99.90;;;;;;5004035;28;86956;-77
2024/01/02 09:41:24;;;;;;;0.77;0.38;;;11.40;99.90;;;;;;4988314;28;86519;-78
2024/01/02 09:44:27;;;;;;;0.20;0.10;;;11.40;99.90;;;;;;5005922;28;91331;-78
2024/01/02 09:47:20;;;;;;;0.03;0.03;;;11.40;99.90;;;;;;5006136;28;89679;-78
2024/01/02 09:50:15;;;;;;;0.20;0.20;;;11.30;99.90;;;;;;4993245;28;87090;-78
2024/01/02 09:53:11;;;;;;;1.15;0.10;;;11.40;99.90;;;;;;5006572;28;86071;-78
2024/01/02 09:56:15;;;;;;;0.43;0.10;;;11.30;99.90;;;;;;5001231;28;92475;-79
2024/01/02 09:59:00;;;;;;;;;;;11.40;99.90;;;;;;5006124;28;91360;-78
2024/01/02 10:01:48;;;;;;;;;;;11.30;99.90;;;;;;5382328;23;87013;-77
2024/01/02 10:07:08;;;;;;;1.10;0.10;;;11.30;99.90;;;;;;5065861;22;87354;-77
2024/01/02 10:09:42;;;;;;;0.17;0.10;;;11.30;99.90;;;;;;5057037;23;87929;-79
2024/01/02 10:17:51;;;;;;;0.20;0.20;;;11.30;99.90;;;;;;6037280;22;87330;-78
2024/01/02 10:20:48;;;;;;;0.10;0.10;;;11.30;99.90;;;;;;5131966;23;87262;-80
2024/01/02 10:46:41;;;;;;;1.98;0.10;;;10.90;99.90;;;;;;2507816;22;86461;-87
2024/01/02 10:49:29;;;;;;;0.22;0.20;;;10.90;99.90;;;;;;4988363;28;85401;-83
2024/01/02 10:52:07;;;;;;;0.10;0.10;;;10.80;99.90;;;;;;5002554;28;85807;-89
2024/01/02 10:54:37;;;;;;;0.20;0.20;;;10.80;99.90;;;;;;4989903;28;85452;-84
2024/01/02 10:57:09;;;;;;;0.35;0.10;;;10.80;99.90;;;;;;4996645;28;85210;-82
2024/01/02 11:00:07;;;;;;;0.10;0.10;;;10.70;99.90;;;;;;5006190;28;86849;-86
2024/01/02 11:03:04;;;;;;;0.10;0.10;;;10.70;99.90;;;;;;5004673;28;85774;-81
2024/01/02 11:05:39;;;;;;;0.13;0.10;;;10.70;99.90;;;;;;4987596;28;86653;-80
2024/01/02 11:08:25;;;;;;;0.25;0.10;;;10.70;99.90;;;;;;5012036;28;85678;-86
2024/01/02 11:11:01;;;;;;;0.52;0.10;;;10.70;99.90;;;;;;5014433;28;91588;-79
2024/01/02 11:13:28;;;;;;;0.17;0.10;;;10.70;99.90;;;;;;5003622;28;86456;-80
2024/01/02 11:16:02;;;;;;;0.10;0.10;;;10.70;99.90;;;;;;4985793;28;85821;-85
2024/01/02 11:18:32;;;;;;;0.68;0.20;;;10.70;99.90;;;;;;5013008;28;85417;-87
2024/01/02 11:21:01;;;;;;;0.57;0.20;;;10.60;99.90;;;;;;4988791;28;86407;-87
2024/01/02 11:23:29;;;;;;;0.05;0.05;;;10.60;99.90;;;;;;5000472;28;85557;-86
2024/01/02 11:26:13;;;;;;;0.38;0.10;;;10.60;99.90;;;;;;5014073;28;84931;-85
2024/01/02 11:28:42;;;;;;;0.15;0.15;;;10.60;99.90;;;;;;5010714;28;85401;-85
2024/01/02 11:34:50;;;;;;;0.65;0.10;;;10.60;99.90;;;;;;5008721;28;85362;-80
2024/01/02 11:37:33;;;;;;;0.28;0.10;;;10.60;99.90;;;;;;5013093;28;85670;-83
2024/01/02 11:40:16;;;;;;;1.25;0.20;;;10.50;99.90;;;;;;5013518;28;86433;-85
2024/01/02 11:42:44;;;;;;;0.20;0.20;;;10.50;99.90;;;;;;5000765;22;85796;-78
2024/01/02 11:45:20;;;;;;;1.33;0.20;;;10.50;99.90;;;;;;4971521;28;89717;-77
2024/01/02 11:48:24;;;;;;;1.40;0.30;;;10.50;99.90;;;;;;4992203;28;86504;-78
2024/01/02 11:50:54;;;;;;;0.30;0.10;;;10.50;99.90;;;;;;4976029;28;86541;-78
2024/01/02 11:53:35;;;;;;;0.10;0.10;;;10.50;99.90;;;;;;4985629;28;90334;-78
2024/01/02 11:56:07;;;;;;;0.52;0.10;;;10.50;99.90;;;;;;4970856;28;89735;-77
2024/01/02 11:59:08;;;;;;;0.63;0.10;;;10.50;99.90;;;;;;4971796;28;90847;-78
2024/01/02 12:01:42;;;;;;;0.43;0.20;;;10.50;99.90;;;;;;4990897;28;87285;-77
2024/01/02 12:04:26;;;;;;;1.83;0.20;;;10.50;99.90;;;;;;4969796;28;89448;-78
2024/01/02 12:06:58;;;;;;;1.30;0.10;;;10.50;99.90;;;;;;4972473;28;92639;-77
2024/01/02 12:09:27;;;;;;;0.30;0.10;;;10.50;99.90;;;;;;4971062;28;86478;-78
2024/01/02 12:12:10;;;;;;;0.45;0.20;;;10.50;99.90;;;;;;4990043;28;86755;-77
2024/01/02 12:15:13;;;;;;;1.90;0.10;;;10.50;99.90;;;;;;4970107;28;90490;-77
2024/01/02 12:17:51;;;;;;;1.88;0.20;;;10.50;99.90;;;;;;4991992;28;86356;-78
2024/01/02 12:20:18;;;;;;;0.20;0.10;;;10.50;99.90;;;;;;4992557;28;86822;-78
2024/01/02 12:22:45;;;;;;;0.57;0.20;;;10.50;99.90;;;;;;4974194;28;86680;-77
2024/01/02 12:25:13;;;;;;;1.45;0.17;;;10.50;99.90;;;;;;4987406;28;90467;-78
2024/01/02 12:27:42;;;;;;;0.40;0.10;;;10.50;99.90;;;;;;4971510;28;89495;-77
2024/01/02 12:30:14;;;;;;;0.38;0.10;;;10.50;99.90;;;;;;4972477;28;87166;-76
2024/01/02 12:33:12;;;;;;;2.88;0.10;;;10.50;99.90;;;;;;4987527;28;86376;-77
2024/01/02 12:35:58;;;;;;;0.65;0.10;;;10.50;99.90;;;;;;4993872;28;88271;-78
2024/01/02 12:38:25;;;;;;;0.47;0.15;;;10.60;99.90;;;;;;4992269;28;86960;-79
2024/01/02 12:40:55;;;;;;;0.10;0.10;;;10.50;99.90;;;;;;4975534;28;86861;-77
2024/01/02 12:43:29;;;;;;;0.17;0.10;;;10.50;99.90;;;;;;4993943;28;86236;-76
2024/01/02 12:46:19;;;;;;;0.25;0.10;;;10.50;99.90;;;;;;4973835;28;90313;-78
2024/01/02 12:49:04;;;;;;;0.60;0.20;;;10.60;99.90;;;;;;4972337;28;89932;-78
2024/01/02 12:51:33;;;;;;;0.85;0.10;;;10.60;99.90;;;;;;4992765;28;86318;-77
2024/01/02 12:54:02;;;;;;;0.10;0.10;;;10.60;99.90;;;;;;4998186;28;86178;-77
2024/01/02 12:56:32;;;;;;;0.15;0.15;;;10.60;99.90;;;;;;4967905;28;90831;-77
2024/01/02 12:59:08;;;;;;;1.23;0.32;;;10.60;99.90;;;;;;4975243;28;89674;-78
2024/01/02 13:01:36;;;;;;;0.30;0.20;;;10.60;99.90;;;;;;4970553;28;90973;-78
2024/01/02 13:04:02;;;;;;;0.50;0.22;;;10.70;99.90;;;;;;4974403;28;86503;-78
2024/01/02 13:06:28;;;;;;;2.08;0.15;;;10.70;99.90;;;;;;4972926;28;90371;-77
2024/01/02 13:08:54;;;;;;;0.63;0.17;;;10.70;99.90;;;;;;4992659;28;86447;-78
2024/01/02 13:11:21;;;;;;;0.45;0.22;;;10.70;99.90;;;;;;4992949;28;86357;-79
2024/01/02 13:13:52;;;;;;;0.75;0.20;;;10.70;99.90;;;;;;4994866;28;86271;-78
2024/01/02 13:16:18;;;;;;;0.20;0.20;;;10.70;99.90;;;;;;4994824;28;87437;-78
2024/01/02 13:18:48;;;;;;;0.50;0.20;;;10.80;99.90;;;;;;4993263;28;86321;-78
2024/01/02 13:21:14;;;;;;;0.20;0.10;;;10.80;99.90;;;;;;4992515;28;85944;-77
2024/01/02 13:23:59;;;;;;;0.10;0.10;;;10.80;99.90;;;;;;4986112;28;86674;-78
2024/01/02 13:26:48;;;;;;;0.13;0.13;;;10.80;99.90;;;;;;4991532;28;87426;-78
2024/01/02 13:29:14;;;;;;;0.17;0.10;;;10.80;99.90;;;;;;4985873;28;90159;-78
2024/01/02 13:31:42;;;;;;;0.32;0.20;;;10.80;99.90;;;;;;4969242;28;85820;-78
2024/01/02 13:34:07;;;;;;;0.22;0.20;;;10.90;99.90;;;;;;4982096;28;86517;-78
2024/01/02 13:36:45;;;;;;;0.13;0.13;;;10.90;99.90;;;;;;4992587;28;87455;-77
2024/01/02 13:39:36;;;;;;;0.38;0.13;;;10.90;99.90;;;;;;4991939;28;86698;-78
2024/01/02 13:42:02;;;;;;;0.30;0.10;;;10.90;99.90;;;;;;4972543;28;86097;-78
2024/01/02 13:44:36;;;;;;;0.30;0.10;;;11.00;99.90;;;;;;4990950;28;86080;-77
2024/01/02 13:47:04;;;;;;;;;;;11.00;99.90;;;;;;4991593;28;86782;-78
2024/01/02 13:50:03;;;;;;;0.40;0.30;;;11.00;99.90;;;;;;4972458;28;89020;-76
2024/01/02 13:52:33;;;;;;;0.10;0.10;;;11.00;99.90;;;;;;4960988;28;85979;-77
2024/01/02 13:55:00;;;;;;;0.17;0.10;;;11.00;99.90;;;;;;4990633;28;86535;-80
2024/01/02 13:57:33;;;;;;;1.25;0.20;;;11.00;99.90;;;;;;4969025;28;89033;-77
2024/01/02 14:00:12;;;;;;;1.13;0.13;;;10.90;99.90;;;;;;4993867;28;89111;-78
2024/01/02 14:02:44;;;;;;;2.13;0.10;;;10.90;99.90;;;;;;4969806;28;86163;-77
2024/01/02 14:05:13;;;;;;;0.10;0.10;;;10.90;99.90;;;;;;4970904;28;86664;-78
2024/01/02 14:07:41;;;;;;;4.18;0.10;;;10.90;99.90;;;;;;4970504;28;90939;-77
2024/01/02 14:10:10;;;;;;;0.10;0.10;;;10.90;99.90;;;;;;4967185;28;90248;-79
2024/01/02 14:12:40;;;;;;;0.10;0.10;;;10.90;99.90;;;;;;4967359;28;86312;-78
2024/01/02 14:15:09;;;;;;;0.65;0.20;;;10.90;99.90;;;;;;4969781;28;86635;-78
2024/01/02 14:17:36;;;;;;;0.10;0.10;;;10.90;99.90;;;;;;4987236;28;87252;-77
2024/01/02 14:20:11;;;;;;;0.10;0.10;;;10.90;99.90;;;;;;4991576;28;88888;-78
2024/01/02 14:22:46;;;;;;;0.55;0.20;;;10.90;99.90;;;;;;4991787;28;87422;-77
2024/01/02 14:25:50;;;;;;;0.20;0.10;;;11.00;99.90;;;;;;4970303;28;86135;-78
2024/01/02 14:28:24;;;;;;;0.10;0.10;;;10.90;99.90;;;;;;4985431;28;87466;-78
2024/01/02 14:31:12;;;;;;;0.28;0.15;;;11.00;99.90;;;;;;5038109;23;90008;-73
2024/01/02 14:34:24;;;;;;;0.32;0.20;;;11.00;99.90;;;;;;4965567;28;86469;-78
2024/01/02 14:37:17;;;;;;;0.10;0.10;;;10.90;99.90;;;;;;4922794;28;88097;-77
2024/01/02 14:40:40;;;;;;;0.20;0.20;;;11.00;99.90;;;;;;4961923;28;87457;-77
2024/01/02 14:43:40;;;;;;;0.65;0.65;;;11.00;99.90;;;;;;4904671;28;89087;-78
2024/01/02 14:46:52;;;;;;;0.43;0.43;;;11.00;99.90;;;;;;4924414;28;86286;-77
2024/01/02 14:49:30;;;;;;;0.10;0.10;;;11.00;99.90;;;;;;4906998;28;86378;-77
2024/01/02 14:52:11;;;;;;;0.35;0.13;;;11.10;99.90;;;;;;4965757;28;88034;-84
2024/01/02 14:55:07;;;;;;;1.98;0.13;;;11.10;99.90;;;;;;4970384;28;88622;-79
2024/01/02 14:57:55;;;;;;;0.30;0.20;;;11.00;99.90;;;;;;4961112;28;85827;-78
2024/01/02 15:00:30;;;;;;;0.20;0.20;;;11.00;99.90;;;;;;4971040;28;85978;-80
2024/01/02 15:03:14;;;;;;;0.30;0.25;;;11.00;99.90;;;;;;4968543;28;90582;-78
2024/01/02 15:05:51;;;;;;;1.48;0.20;;;11.00;99.90;;;;;;4969232;28;93108;-81
2024/01/02 15:08:30;;;;;;;0.20;0.10;;;11.00;99.90;;;;;;4963712;28;87461;-81
2024/01/02 15:11:06;;;;;;;0.20;0.20;;;11.00;99.90;;;;;;4975754;28;86205;-77
2024/01/02 15:14:11;;;;;;;0.35;0.20;;;11.00;99.90;;;;;;4962344;28;95209;-82
2024/01/02 15:16:48;;;;;;;0.15;0.10;;;11.10;99.90;;;;;;4958952;28;87092;-81
2024/01/02 15:20:04;;;;;;;0.63;0.15;;;11.00;99.90;;;;;;4972650;28;86305;-80
2024/01/02 15:23:24;;;;;;;1.40;0.20;;;11.00;99.90;;;;;;4951776;28;86651;-79
2024/01/02 15:26:23;;;;;;;1.75;0.45;;;11.00;99.90;;;;;;4927665;28;91974;-79
2024/01/02 15:28:54;;;;;;;1.10;0.22;;;11.00;99.90;;;;;;4953511;28;92174;-80
2024/01/02 15:31:28;;;;;;;0.20;0.10;;;11.10;99.90;;;;;;4970612;28;86368;-81
2024/01/02 15:33:56;;;;;;;0.17;0.10;;;11.00;99.90;;;;;;4971131;28;86170;-78
2024/01/02 15:36:47;;;;;;;0.28;0.10;;;11.00;99.90;;;;;;4953449;28;89649;-79
2024/01/02 15:39:23;;;;;;;0.90;0.20;;;11.10;99.90;;;;;;4954199;28;87177;-79
2024/01/02 15:42:03;;;;;;;1.00;0.32;;;11.10;99.90;;;;;;4954736;28;86481;-79
2024/01/02 15:44:57;;;;;;;0.50;0.10;;;11.10;99.90;;;;;;4971094;28;86006;-79
2024/01/02 15:47:55;;;;;;;0.25;0.20;;;11.10;99.90;;;;;;4927926;28;89840;-80
2024/01/02 15:50:35;;;;;;;0.20;0.10;;;11.00;99.90;;;;;;4969975;28;89574;-78
2024/01/02 15:53:34;;;;;;;1.15;0.30;;;11.10;99.90;;;;;;4974305;28;86054;-83
2024/01/02 15:56:08;;;;;;;0.10;0.10;;;11.00;99.90;;;;;;4954915;28;87489;-80
2024/01/02 15:58:52;;;;;;;0.13;0.13;;;11.10;99.90;;;;;;4953650;28;92808;-79
2024/01/02 16:01:19;;;;;;;0.45;0.20;;;11.10;99.90;;;;;;4956239;28;86970;-79
2024/01/02 16:04:10;;;;;;;0.75;0.30;;;11.10;99.90;;;;;;4968970;28;86704;-80
2024/01/02 16:06:39;;;;;;;0.32;0.20;;;11.10;99.90;;;;;;4970060;28;86717;-81
2024/01/02 16:09:49;;;;;;;0.45;0.20;;;11.10;99.90;;;;;;4957537;28;88528;-79
2024/01/02 16:12:58;;;;;;;0.30;0.10;;;11.00;99.90;;;;;;4966433;28;88880;-81
2024/01/02 16:16:08;;;;;;;0.10;0.10;;;11.00;99.90;;;;;;4947237;28;86352;-80
2024/01/02 16:18:55;;;;;;;0.20;0.10;;;11.10;99.90;;;;;;4951516;28;86103;-81
2024/01/02 16:21:34;;;;;;;2.05;0.30;;;11.00;99.90;;;;;;4970789;28;87564;-80
2024/01/02 16:24:03;;;;;;;3.53;0.10;;;11.10;99.90;;;;;;4967109;28;88759;-81
2024/01/02 16:27:14;;;;;;;0.75;0.47;;;11.10;99.90;;;;;;4953463;28;85941;-80
2024/01/02 16:30:09;;;;;;;2.03;0.30;;;11.10;99.90;;;;;;4955503;28;86761;-81
2024/01/02 16:33:09;;;;;;;0.30;0.30;;;11.10;99.90;;;;;;4939343;28;87637;-80
2024/01/02 16:36:25;;;;;;;0.10;0.10;;;11.10;99.90;;;;;;4946359;28;86451;-80
2024/01/02 16:39:20;;;;;;;;;;;11.20;99.90;;;;;;4936822;28;85950;-81
2024/01/02 16:42:54;;;;;;;1.08;0.20;;;11.20;99.90;;;;;;4948754;28;87251;-78
2024/01/02 16:45:43;;;;;;;0.77;0.10;;;11.30;99.90;;;;;;4944991;28;87114;-79
2024/01/02 16:48:19;;;;;;;0.13;0.10;;;11.30;99.90;;;;;;4962209;28;86753;-81
2024/01/02 16:50:52;;;;;;;2.63;0.10;;;11.20;99.90;;;;;;4953078;28;86170;-80
2024/01/02 16:53:24;;;;;;;0.30;0.20;;;11.20;99.90;;;;;;4944072;28;86278;-80
2024/01/02 16:55:52;;;;;;;0.38;0.10;;;11.30;99.90;;;;;;4979204;28;90626;-82
2024/01/02 16:58:28;;;;;;;0.10;0.10;;;11.30;99.90;;;;;;4953894;28;86319;-81
2024/01/02 17:01:21;;;;;;;0.10;0.10;;;11.30;99.90;;;;;;4937694;28;87121;-80
2024/01/02 17:04:04;;;;;;;2.15;0.20;;;11.40;99.90;;;;;;4968982;28;86253;-79
2024/01/02 17:06:37;;;;;;;0.43;0.17;;;11.40;99.90;;;;;;4954304;28;88603;-77
2024/01/02 17:09:06;;;;;;;0.93;0.10;;;11.40;99.90;;;;;;4936406;28;90050;-80
2024/01/02 17:11:37;;;;;;;0.10;0.10;;;11.40;99.90;;;;;;4966718;28;86940;-77
2024/01/02 17:14:14;;;;;;;0.40;0.20;;;11.40;99.90;;;;;;4953353;28;86365;-77
2024/01/02 17:16:41;;;;;;;0.77;0.40;;;11.40;99.90;;;;;;4938234;28;93468;-78
2024/01/02 17:19:11;;;;;;;0.20;0.20;;;11.50;99.90;;;;;;4960655;28;87808;-79
2024/01/02 17:21:48;;;;;;;0.55;0.20;;;11.50;99.90;;;;;;4952793;28;87620;-78
2024/01/02 17:24:20;;;;;;;0.20;0.10;;;11.60;99.90;;;;;;4960156;28;86488;-79
2024/01/02 17:26:47;;;;;;;0.30;0.20;;;11.60;99.90;;;;;;4951737;28;86955;-78
2024/01/02 17:29:14;;;;;;;0.30;0.10;;;11.60;99.90;;;;;;4983146;28;89390;-78
2024/01/02 17:31:45;;;;;;;0.95;0.20;;;11.70;99.90;;;;;;4971957;28;86318;-76
2024/01/02 17:34:11;;;;;;;1.92;0.30;;;11.70;99.90;;;;;;4950246;28;86691;-77
2024/01/02 17:36:38;;;;;;;2.58;0.40;;;11.70;99.90;;;;;;4951447;28;90803;-77
2024/01/02 17:39:06;;;;;;;0.77;0.20;;;11.80;99.90;;;;;;4965614;28;89584;-76
2024/01/02 17:41:32;;;;;;;0.38;0.20;;;11.80;99.90;;;;;;4971389;28;86327;-77
2024/01/02 17:43:58;;;;;;;0.75;0.20;;;11.90;99.90;;;;;;4961758;28;85808;-77
2024/01/02 17:46:37;;;;;;;1.27;0.25;;;11.90;99.90;;;;;;4951123;28;90293;-77
2024/01/02 17:49:05;;;;;;;0.22;0.20;;;12.00;99.90;;;;;;4944424;28;90133;-77
2024/01/02 17:51:31;;;;;;;0.80;0.30;;;12.00;99.90;;;;;;4942796;28;86626;-78
2024/01/02 17:53:59;;;;;;;0.50;0.30;;;12.00;99.90;;;;;;4969952;28;85977;-79
2024/01/02 17:56:25;;;;;;;1.65;0.30;;;12.00;99.90;;;;;;4951141;28;88943;-78
2024/01/02 17:59:16;;;;;;;1.23;0.40;;;12.00;99.90;;;;;;4970728;28;88273;-78